Lebanon, OR

9:07 AM PST on November 28, 2014 (GMT -0800)
Near Downtown - Grant | Change Station
CLOSE
Current Station
Personal Weather Station
Location: Lebanon, OR
Elevation: 354 ft
Nearby Weather Stations
Active Advisory: Special Statement Active Notice: Record Report

Elev 354 ft 44.54 °N, 122.90 °W | Updated 8 seconds ago

Overcast
Overcast
53.1 °F
Feels Like 53.1 °F
N
3.1
Wind Variable Wind from SE
Gusts 3.1 mph

Today
High -- | Low -- °F
--% Chance of Precip.
Yesterday
High -- | Low -- °F
Precip. -- in
7:24 AM 4:34 PM
Waxing Crescent, 42% visible
Pressure 29.69 in
Visibility 10.0 miles
Clouds Mostly Cloudy 3200 ft
Overcast 4000 ft
Dew Point 52 °F
Humidity 97%
Rainfall 0.00 in
Snow Depth Not available.
UV 0 out of 12
Pollen .30 out of 12
Air Quality Not available.
Flu Activity Not available.
METAR KCVO 281655Z AUTO 17010KT 10SM BKN032 OVC040 13/09 A2969 RMK AO1

More Conditions Fewer Conditions

Pressure 29.69 in
Visibility 10.0 miles
Clouds Mostly Cloudy 3200 ft
Overcast 4000 ft
Dew Point 52 °F
Humidity 97%
Rainfall 0.00 in
Snow Depth Not available.
UV 0 out of 12
Pollen .30 out of 12
Air Quality Not available.
Flu Activity Not available.
METAR KCVO 281655Z AUTO 17010KT 10SM BKN032 OVC040 13/09 A2969 RMK AO1

More Conditions Fewer Conditions

10-Day Weather Forecast

Almanac

Astronomy

Nov. 28, 2014 Rise Set
Actual Time
Civil Twilight
Nautical Twilight
Astronomical Twilight
Moon
Length of Visible Light
Length of Day
Tomorrow will be .
, % of the Moon is Illuminated

Today's Extremes

State Highs State Lows

Community

WunderPhotos

Upload Photos

1,774,238 photos uploaded!

WunderBlogs® & News

Nearby

Air Quality

  Air Quality AQ Index Pollutant
Not available.

Snow Depth

Station Depth Elevation

Earthquake Activity

City Distance Mag. Time & Date
Minimum magnitude displayed is 2.5.

Coastal Water Temperatures

Place Temperature

Nearby Weather Stations